Duck Lake, Canada
Current Conditions -  °F | °C
As of 8:00 AM on Wednesday 22 Oct 2014 (Local Time) from CYPA Reporting Station
Overcast Overcast  
Wind Chill: 45°   Ceiling: 8000
Heat Index: 48°   Visibility: 15mi
Dew Point: 45°   Wind: 8mph
Humidity: 87%   Direction: 280°W
Pressure: 29.66"   Gusts: NA
Location:  52.8°N, 106.22°W
Report Text: CYPA 221400Z 28007KT 15SM BKN080 OVC160 09/07 A2966 RMK AC5AC3 SLP056
Loading
Personal Weather Stations






























Interactive Weather Map
Tropical Storm Tracking
New forecast layout! Learn more

10-Day Weather Forecast

Advertisements
Track Severe Weather on mobile